עמוד ראשי
METAR-TAF:

METAR-TAF

שדות תעופה :

ארמוסיו, מקסיקו

קו רוחב: 29-04N, קו אורך: 110-57W, גובה: 211מטר

תצפית מזג אוויר נוכחית

הדו"ח נערך לפני 25דקות, בשעה 10:53 UTC
רוח 2קשר מכיוון צפון-מערב
טמפרטורת 23 צלסיוס
לחות 94%
לחץ 1009 hPa
ראות: 16.1קילומטר
שמיים נקיים

METAR: MMHO 151053Z 32002KT 10SM SKC 23/22 A2980 RMK HZY

זמן: 04:18 (11:18 UTC)

תחזית

הדו"ח נערך לפני 6 שעות ו 26דקות, בשעה 04:52 UTC
תחזית בתוקף מ 15 ב 06 UTC עד 16 ב 06 UTC
רוח 5קשר מכיוון מערב/דרום-מערב
ראות: 10קילומטר
שמיים נקיים
מ 15 ב 1800UTC
רוח 10קשר מכיוון מערב/דרום-מערב
ראות: 10קילומטר
שמיים נקיים
מ 16 ב 0200UTC
רוח 5קשר מכיוון מערב/דרום-מערב
ראות: 10קילומטר
שמיים נקיים

TAF: MMHO 150452Z 1506/1606 24005KT P6SM SKC FM151800 24010KT P6SM SKC FM160200 24005KT P6SM SKC

תצפיות ותחזיות מזג אוויר לגבי יותר מ- 4,000 שדות תעופה ברחבי העולם. דוחות METAR ו- TAF.

התחנות הזמינות מסומנות בנקודות צהובות ואדומות על גבי המפה.

העבר את העכבר לנקודה הצבעונית על מנת לראות את שם התחנה.

לאחר מכן, לחץ כדי לראות את תוכן ואת תחזיות מזג האוויר.

כדי לשנות את המפה: לחץ על הכפתורים הירוקים עם הפלוס השחור כדי להתקרב; על הכפתור הירוק עם המקף כדי להתרחק; או בחיצים הירוקים למפות סמוכות.


METAR-TAF: